| time (UTC) | temp C | wind direction | speed KPH | gust KPH | rain 1hr cm | rain 24hr cm | rain mn cm | humidity % | barometer mb |
| 20260503054506 | 6 | 339 | 0.0 | 0.0 | 0.00 | 0.36 | 0.00 | 86 | 1015.9 |
| 20260503053008 | 6 | 339 | 0.0 | 0.0 | 0.00 | 0.36 | 0.00 | 86 | 1016.0 |
| 20260503051602 | 6 | 339 | 0.0 | 0.0 | 0.00 | 0.36 | 0.00 | 86 | 1015.7 |
| 20260503050058 | 6 | 339 | 0.0 | 0.0 | 0.00 | 0.36 | 0.00 | 86 | 1015.7 |
| 20260503044557 | 6 | 339 | 0.0 | 0.0 | 0.00 | 0.36 | 0.00 | 86 | 1015.9 |
| 20260503043056 | 7 | 339 | 0.0 | 0.0 | 0.00 | 0.36 | 0.00 | 86 | 1015.8 |
| 20260503041652 | 7 | 339 | 0.0 | 0.0 | 0.00 | 0.36 | 0.00 | 86 | 1015.7 |
| 20260503040051 | 7 | 339 | 0.0 | 0.0 | 0.00 | 0.36 | 0.00 | 86 | 1015.6 |
| 20260503034549 | 7 | 339 | 0.0 | 0.0 | 0.00 | 0.36 | 0.36 | 86 | 1015.4 |
| 20260503033048 | 7 | 339 | 0.0 | 0.0 | 0.00 | 0.36 | 0.36 | 86 | 1015.5 |
| 20260503031545 | 7 | 339 | 0.0 | 0.0 | 0.00 | 0.36 | 0.36 | 86 | 1015.3 |
| 20260503030043 | 8 | 339 | 0.0 | 0.0 | 0.00 | 0.36 | 0.36 | 86 | 1015.0 |
| 20260503024540 | 8 | 339 | 0.0 | 0.0 | 0.00 | 0.36 | 0.36 | 86 | 1015.1 |
| 20260503023039 | 8 | 339 | 0.0 | 0.0 | 0.00 | 0.36 | 0.36 | 86 | 1014.9 |
| 20260503021538 | 8 | 339 | 0.0 | 0.0 | 0.00 | 0.36 | 0.36 | 86 | 1014.7 |
| 20260503020034 | 9 | 339 | 0.0 | 0.0 | 0.00 | 0.36 | 0.36 | 86 | 1014.6 |
| 20260503014549 | 9 | 339 | 0.0 | 0.0 | 0.00 | 0.36 | 0.36 | 86 | 1014.8 |
| 20260503013035 | 9 | 339 | 0.0 | 0.0 | 0.00 | 0.36 | 0.36 | 85 | 1014.7 |
| 20260503011532 | 10 | 339 | 0.0 | 0.0 | 0.00 | 0.36 | 0.36 | 85 | 1014.4 |
| 20260503010030 | 10 | 339 | 0.0 | 0.0 | 0.00 | 0.36 | 0.36 | 85 | 1014.2 |
| 20260503004528 | 10 | 339 | 0.0 | 0.0 | 0.00 | 0.36 | 0.36 | 85 | 1013.9 |
| 20260503003024 | 11 | 339 | 0.0 | 0.0 | 0.00 | 0.36 | 0.36 | 85 | 1013.6 |
| 20260503001525 | 11 | 339 | 0.0 | 0.0 | 0.00 | 0.36 | 0.36 | 84 | 1013.4 |
| 20260503000023 | 12 | 219 | 0.0 | 0.0 | 0.00 | 0.36 | 0.36 | 84 | 1013.2 |
| 20260502234525 | 12 | 219 | 0.0 | 0.0 | 0.00 | 0.36 | 0.36 | 84 | 1013.0 |
| 20260502233022 | 12 | 219 | 0.0 | 0.0 | 0.03 | 0.36 | 0.36 | 84 | 1012.7 |
| 20260502231524 | 12 | 213 | 0.0 | 0.0 | 0.03 | 0.36 | 0.36 | 83 | 1012.8 |
| 20260502230021 | 12 | 211 | 0.0 | 0.0 | 0.03 | 0.36 | 0.36 | 83 | 1012.7 |
| 20260502224523 | 12 | 211 | 0.0 | 0.0 | 0.03 | 0.36 | 0.36 | 83 | 1012.6 |
| 20260502223020 | 12 | 215 | 0.0 | 0.0 | 0.00 | 0.33 | 0.33 | 82 | 1012.7 |
| 20260502221519 | 12 | 215 | 0.0 | 0.0 | 0.00 | 0.33 | 0.33 | 82 | 1012.6 |
| 20260502220019 | 12 | 215 | 0.0 | 0.0 | 0.00 | 0.33 | 0.33 | 82 | 1012.5 |
| 20260502214519 | 12 | 215 | 0.0 | 0.0 | 0.00 | 0.33 | 0.33 | 81 | 1012.3 |
| 20260502213018 | 13 | 286 | 0.0 | 0.0 | 0.00 | 0.33 | 0.33 | 82 | 1012.3 |
| 20260502211533 | 13 | 273 | 0.0 | 0.0 | 0.00 | 0.33 | 0.33 | 81 | 1012.4 |
| 20260502210017 | 13 | 44 | 0.0 | 0.0 | 0.00 | 0.33 | 0.33 | 80 | 1012.3 |
| 20260502204516 | 13 | 44 | 0.0 | 0.0 | 0.00 | 0.36 | 0.33 | 79 | 1012.3 |
| 20260502203015 | 13 | 74 | 0.0 | 4.8 | 0.00 | 0.36 | 0.33 | 78 | 1012.4 |
| 20260502201513 | 12 | 42 | 0.0 | 1.6 | 0.00 | 0.36 | 0.33 | 79 | 1012.4 |
| 20260502200017 | 13 | 33 | 0.0 | 9.7 | 0.00 | 0.36 | 0.33 | 80 | 1012.4 |
| 20260502194512 | 13 | 22 | 1.6 | 8.0 | 0.00 | 0.36 | 0.33 | 80 | 1012.5 |
| 20260502193011 | 12 | 40 | 0.0 | 4.8 | 0.00 | 0.36 | 0.33 | 81 | 1012.8 |
| 20260502191509 | 12 | 10 | 0.0 | 4.8 | 0.00 | 0.36 | 0.33 | 82 | 1013.0 |
| 20260502190008 | 12 | 5 | 0.0 | 9.7 | 0.00 | 0.36 | 0.33 | 82 | 1012.9 |
| 20260502184507 | 12 | 124 | 0.0 | 4.8 | 0.00 | 0.36 | 0.33 | 83 | 1013.0 |
| 20260502183005 | 12 | 91 | 0.0 | 6.4 | 0.00 | 0.36 | 0.33 | 83 | 1013.1 |
| 20260502181502 | 12 | 360 | 3.2 | 12.9 | 0.00 | 0.36 | 0.33 | 85 | 1013.2 |
| 20260502163055 | 11 | 72 | 0.0 | 3.2 | 0.00 | 0.33 | 0.30 | 85 | 1014.1 |
| 20260502161550 | 11 | 44 | 0.0 | 3.2 | 0.03 | 0.33 | 0.30 | 85 | 1014.3 |
| 20260502151554 | 11 | 120 | 0.0 | 3.2 | 0.08 | 0.30 | 0.28 | 85 | 1014.4 |
| 20260502123021 | 11 | 294 | 0.0 | 0.0 | 0.03 | 0.13 | 0.05 | 86 | 1013.6 |
| 20260502121520 | 11 | 294 | 0.0 | 0.0 | 0.03 | 0.13 | 0.05 | 86 | 1013.2 |
| 20260502114516 | 11 | 294 | 0.0 | 0.0 | 0.05 | 0.13 | 0.05 | 86 | 1013.4 |
| 20260502113015 | 11 | 227 | 0.0 | 0.0 | 0.03 | 0.10 | 0.03 | 86 | 1013.3 |
| 20260502111514 | 11 | 227 | 0.0 | 0.0 | 0.03 | 0.10 | 0.03 | 86 | 1013.3 |
| 20260502110013 | 11 | 227 | 0.0 | 0.0 | 0.00 | 0.08 | 0.00 | 86 | 1013.6 |
| 20260502104520 | 11 | 227 | 0.0 | 0.0 | 0.00 | 0.08 | 0.00 | 86 | 1013.6 |
| 20260502103015 | 11 | 227 | 0.0 | 0.0 | 0.00 | 0.08 | 0.00 | 86 | 1013.6 |
| 20260502101529 | 11 | 228 | 0.0 | 0.0 | 0.00 | 0.08 | 0.00 | 86 | 1013.6 |
| 20260502091505 | 11 | 283 | 0.0 | 0.0 | 0.00 | 0.08 | 0.00 | 86 | 1013.7 |
| 20260502080106 | 10 | 283 | 0.0 | 0.0 | 0.00 | 0.08 | 0.00 | 86 | 1012.8 |
| 20260502070059 | 11 | 283 | 0.0 | 0.0 | 0.00 | 0.08 | 0.00 | 86 | 1012.5 |
| 20260502064551 | 11 | 283 | 0.0 | 0.0 | 0.00 | 0.08 | 0.00 | 86 | 1012.5 |